sensor_id;sensor_type;location;lat;lon;timestamp;pressure;altitude;pressure_sealevel;temperature;humidity
41830;BME280;38614;43.472;23.936;2022-08-05T00:02:04;100053.53;;;21.55;nan
41830;BME280;38614;43.472;23.936;2022-08-05T00:04:54;100046.00;;;21.69;nan
41830;BME280;38614;43.472;23.936;2022-08-05T00:07:42;100055.41;;;21.62;nan
41830;BME280;38614;43.472;23.936;2022-08-05T00:10:47;100047.28;;;21.48;nan
41830;BME280;38614;43.472;23.936;2022-08-05T00:13:37;100030.31;;;21.35;nan
41830;BME280;38614;43.472;23.936;2022-08-05T00:16:27;100045.22;;;21.32;nan
41830;BME280;38614;43.472;23.936;2022-08-05T00:19:23;100073.75;;;21.50;nan
41830;BME280;38614;43.472;23.936;2022-08-05T00:22:19;100076.97;;;21.49;nan
41830;BME280;38614;43.472;23.936;2022-08-05T00:25:07;100060.34;;;21.38;nan
41830;BME280;38614;43.472;23.936;2022-08-05T00:27:56;100051.13;;;21.18;nan
41830;BME280;38614;43.472;23.936;2022-08-05T00:30:44;100049.97;;;21.15;nan
41830;BME280;38614;43.472;23.936;2022-08-05T00:33:32;100058.59;;;21.24;nan
41830;BME280;38614;43.472;23.936;2022-08-05T00:36:40;100060.00;;;20.96;nan
41830;BME280;38614;43.472;23.936;2022-08-05T00:39:48;100054.81;;;20.95;nan
41830;BME280;38614;43.472;23.936;2022-08-05T00:42:44;100057.44;;;21.02;nan
41830;BME280;38614;43.472;23.936;2022-08-05T00:45:34;100048.97;;;20.86;nan
41830;BME280;38614;43.472;23.936;2022-08-05T00:48:25;100061.22;;;20.95;nan
41830;BME280;38614;43.472;23.936;2022-08-05T00:51:18;100059.03;;;20.83;nan
41830;BME280;38614;43.472;23.936;2022-08-05T00:54:26;100070.13;;;20.90;nan
41830;BME280;38614;43.472;23.936;2022-08-05T00:57:16;100060.13;;;20.89;nan
41830;BME280;38614;43.472;23.936;2022-08-05T01:00:07;100059.13;;;20.80;nan
41830;BME280;38614;43.472;23.936;2022-08-05T01:02:57;100067.91;;;20.82;nan
41830;BME280;38614;43.472;23.936;2022-08-05T01:05:45;100031.25;;;20.69;nan
41830;BME280;38614;43.472;23.936;2022-08-05T01:08:33;100053.06;;;20.81;nan
41830;BME280;38614;43.472;23.936;2022-08-05T01:11:32;100068.81;;;20.75;nan
41830;BME280;38614;43.472;23.936;2022-08-05T01:14:36;100054.63;;;20.62;nan
41830;BME280;38614;43.472;23.936;2022-08-05T01:17:38;100076.16;;;20.69;nan
41830;BME280;38614;43.472;23.936;2022-08-05T01:21:11;100080.00;;;20.78;nan
41830;BME280;38614;43.472;23.936;2022-08-05T01:24:43;100073.59;;;20.78;nan
41830;BME280;38614;43.472;23.936;2022-08-05T01:27:47;100068.91;;;20.71;nan
41830;BME280;38614;43.472;23.936;2022-08-05T01:30:46;100080.47;;;20.73;nan
41830;BME280;38614;43.472;23.936;2022-08-05T01:33:49;100060.13;;;20.46;nan
41830;BME280;38614;43.472;23.936;2022-08-05T01:36:43;100050.81;;;20.53;nan
41830;BME280;38614;43.472;23.936;2022-08-05T01:39:35;100082.63;;;20.66;nan
41830;BME280;38614;43.472;23.936;2022-08-05T01:42:34;100076.72;;;20.60;nan
41830;BME280;38614;43.472;23.936;2022-08-05T01:45:23;100074.56;;;20.48;nan
41830;BME280;38614;43.472;23.936;2022-08-05T01:48:15;100082.00;;;20.58;nan
41830;BME280;38614;43.472;23.936;2022-08-05T01:51:04;100079.22;;;20.55;nan
41830;BME280;38614;43.472;23.936;2022-08-05T01:53:59;100083.38;;;20.46;nan
41830;BME280;38614;43.472;23.936;2022-08-05T01:56:49;100057.81;;;20.17;nan
41830;BME280;38614;43.472;23.936;2022-08-05T01:59:58;100073.41;;;20.18;nan
41830;BME280;38614;43.472;23.936;2022-08-05T02:03:10;100063.38;;;20.21;nan
41830;BME280;38614;43.472;23.936;2022-08-05T02:06:00;100067.44;;;20.16;nan
41830;BME280;38614;43.472;23.936;2022-08-05T02:08:49;100076.03;;;20.06;nan
41830;BME280;38614;43.472;23.936;2022-08-05T02:12:09;100071.47;;;19.92;nan
41830;BME280;38614;43.472;23.936;2022-08-05T02:15:08;100078.94;;;19.99;nan
41830;BME280;38614;43.472;23.936;2022-08-05T02:18:06;100076.06;;;19.79;nan
41830;BME280;38614;43.472;23.936;2022-08-05T02:21:20;100045.03;;;19.62;nan
41830;BME280;38614;43.472;23.936;2022-08-05T02:24:17;100055.97;;;19.57;nan
41830;BME280;38614;43.472;23.936;2022-08-05T02:27:08;100065.00;;;19.68;nan
41830;BME280;38614;43.472;23.936;2022-08-05T02:29:59;100065.09;;;19.61;nan
41830;BME280;38614;43.472;23.936;2022-08-05T02:32:51;100076.94;;;19.72;nan
41830;BME280;38614;43.472;23.936;2022-08-05T02:35:41;100084.28;;;19.62;nan
41830;BME280;38614;43.472;23.936;2022-08-05T02:38:37;100080.41;;;19.56;nan
41830;BME280;38614;43.472;23.936;2022-08-05T02:41:26;100074.63;;;19.36;nan
41830;BME280;38614;43.472;23.936;2022-08-05T02:44:23;100060.72;;;19.29;nan
41830;BME280;38614;43.472;23.936;2022-08-05T02:47:13;100098.91;;;19.47;nan
41830;BME280;38614;43.472;23.936;2022-08-05T02:50:03;100085.50;;;19.31;nan
41830;BME280;38614;43.472;23.936;2022-08-05T02:52:52;100053.69;;;19.14;nan
41830;BME280;38614;43.472;23.936;2022-08-05T02:55:40;100020.50;;;18.82;nan
41830;BME280;38614;43.472;23.936;2022-08-05T02:58:40;100077.25;;;19.17;nan
41830;BME280;38614;43.472;23.936;2022-08-05T03:01:30;100081.13;;;18.96;nan
41830;BME280;38614;43.472;23.936;2022-08-05T03:04:22;100052.22;;;18.72;nan
41830;BME280;38614;43.472;23.936;2022-08-05T03:07:11;100077.31;;;18.79;nan
41830;BME280;38614;43.472;23.936;2022-08-05T03:10:19;100083.78;;;18.72;nan
41830;BME280;38614;43.472;23.936;2022-08-05T03:13:14;100066.25;;;18.61;nan
41830;BME280;38614;43.472;23.936;2022-08-05T03:16:03;100087.75;;;18.75;nan
41830;BME280;38614;43.472;23.936;2022-08-05T03:18:50;100085.47;;;18.63;nan
41830;BME280;38614;43.472;23.936;2022-08-05T03:21:38;100062.31;;;18.59;nan
41830;BME280;38614;43.472;23.936;2022-08-05T03:24:27;100071.97;;;18.50;nan
41830;BME280;38614;43.472;23.936;2022-08-05T03:27:17;100072.28;;;18.60;nan
41830;BME280;38614;43.472;23.936;2022-08-05T03:30:06;100063.66;;;18.43;nan
41830;BME280;38614;43.472;23.936;2022-08-05T03:32:55;100093.06;;;18.66;nan
41830;BME280;38614;43.472;23.936;2022-08-05T03:35:46;100082.25;;;18.64;nan
41830;BME280;38614;43.472;23.936;2022-08-05T03:38:41;100100.72;;;18.55;nan
41830;BME280;38614;43.472;23.936;2022-08-05T03:41:38;100087.59;;;18.48;nan
41830;BME280;38614;43.472;23.936;2022-08-05T03:44:32;100081.72;;;18.35;nan
41830;BME280;38614;43.472;23.936;2022-08-05T03:47:20;100085.69;;;18.38;nan
41830;BME280;38614;43.472;23.936;2022-08-05T03:50:24;100083.69;;;18.38;nan
41830;BME280;38614;43.472;23.936;2022-08-05T03:53:34;100083.63;;;18.45;nan
41830;BME280;38614;43.472;23.936;2022-08-05T03:56:45;100067.41;;;18.26;nan
41830;BME280;38614;43.472;23.936;2022-08-05T04:03:03;100099.16;;;18.54;nan
41830;BME280;38614;43.472;23.936;2022-08-05T04:05:52;100091.06;;;18.59;nan
41830;BME280;38614;43.472;23.936;2022-08-05T04:08:40;100103.03;;;18.67;nan
41830;BME280;38614;43.472;23.936;2022-08-05T04:11:33;100101.31;;;18.80;nan
41830;BME280;38614;43.472;23.936;2022-08-05T04:14:34;100088.84;;;18.85;nan
41830;BME280;38614;43.472;23.936;2022-08-05T04:17:22;100096.72;;;18.97;nan
41830;BME280;38614;43.472;23.936;2022-08-05T04:20:21;100103.38;;;19.10;nan
41830;BME280;38614;43.472;23.936;2022-08-05T04:23:10;100063.09;;;18.97;nan
41830;BME280;38614;43.472;23.936;2022-08-05T04:25:58;100091.63;;;19.22;nan
41830;BME280;38614;43.472;23.936;2022-08-05T04:28:47;100076.47;;;19.16;nan
41830;BME280;38614;43.472;23.936;2022-08-05T04:31:37;100055.75;;;19.10;nan
41830;BME280;38614;43.472;23.936;2022-08-05T04:34:25;100083.13;;;19.29;nan
41830;BME280;38614;43.472;23.936;2022-08-05T04:37:19;100082.69;;;19.31;nan
41830;BME280;38614;43.472;23.936;2022-08-05T04:40:08;100088.53;;;19.44;nan
41830;BME280;38614;43.472;23.936;2022-08-05T04:42:56;100091.25;;;19.51;nan
41830;BME280;38614;43.472;23.936;2022-08-05T04:45:44;100080.88;;;19.48;nan
41830;BME280;38614;43.472;23.936;2022-08-05T04:48:41;100092.88;;;19.79;nan
41830;BME280;38614;43.472;23.936;2022-08-05T04:51:29;100090.34;;;19.88;nan
41830;BME280;38614;43.472;23.936;2022-08-05T04:54:18;100087.25;;;20.06;nan
41830;BME280;38614;43.472;23.936;2022-08-05T04:57:06;100091.03;;;20.19;nan
41830;BME280;38614;43.472;23.936;2022-08-05T04:59:56;100088.19;;;20.46;nan
41830;BME280;38614;43.472;23.936;2022-08-05T05:02:45;100077.66;;;20.54;nan
41830;BME280;38614;43.472;23.936;2022-08-05T05:05:39;100095.47;;;20.67;nan
41830;BME280;38614;43.472;23.936;2022-08-05T05:08:49;100083.94;;;20.81;nan
41830;BME280;38614;43.472;23.936;2022-08-05T05:11:47;100055.09;;;21.00;nan
41830;BME280;38614;43.472;23.936;2022-08-05T05:14:42;100083.56;;;21.42;nan
41830;BME280;38614;43.472;23.936;2022-08-05T05:17:40;100079.13;;;21.61;nan
41830;BME280;38614;43.472;23.936;2022-08-05T05:20:48;100076.53;;;22.03;nan
41830;BME280;38614;43.472;23.936;2022-08-05T05:23:36;100066.38;;;22.09;nan
41830;BME280;38614;43.472;23.936;2022-08-05T05:26:29;100097.19;;;22.61;nan
41830;BME280;38614;43.472;23.936;2022-08-05T05:29:19;100090.66;;;22.81;nan
41830;BME280;38614;43.472;23.936;2022-08-05T05:32:18;100097.91;;;23.11;nan
41830;BME280;38614;43.472;23.936;2022-08-05T05:35:06;100092.09;;;23.30;nan
41830;BME280;38614;43.472;23.936;2022-08-05T05:37:58;100090.31;;;23.49;nan
41830;BME280;38614;43.472;23.936;2022-08-05T05:40:55;100089.34;;;24.07;nan
41830;BME280;38614;43.472;23.936;2022-08-05T05:43:43;100091.13;;;24.39;nan
41830;BME280;38614;43.472;23.936;2022-08-05T05:46:43;100097.72;;;24.70;nan
41830;BME280;38614;43.472;23.936;2022-08-05T05:49:35;100096.63;;;24.90;nan
41830;BME280;38614;43.472;23.936;2022-08-05T05:52:26;100063.00;;;24.35;nan
41830;BME280;38614;43.472;23.936;2022-08-05T05:55:18;100068.81;;;24.66;nan
41830;BME280;38614;43.472;23.936;2022-08-05T05:58:09;100092.97;;;25.24;nan
41830;BME280;38614;43.472;23.936;2022-08-05T06:00:57;100094.84;;;25.49;nan
41830;BME280;38614;43.472;23.936;2022-08-05T06:03:58;100080.78;;;25.67;nan
41830;BME280;38614;43.472;23.936;2022-08-05T06:06:49;100103.34;;;26.11;nan
41830;BME280;38614;43.472;23.936;2022-08-05T06:09:40;100083.25;;;25.87;nan
41830;BME280;38614;43.472;23.936;2022-08-05T06:12:50;100113.06;;;26.59;nan
41830;BME280;38614;43.472;23.936;2022-08-05T06:15:46;100098.59;;;26.48;nan
41830;BME280;38614;43.472;23.936;2022-08-05T06:18:53;100098.13;;;26.77;nan
41830;BME280;38614;43.472;23.936;2022-08-05T06:21:41;100104.91;;;26.80;nan
41830;BME280;38614;43.472;23.936;2022-08-05T06:24:41;100107.84;;;27.68;nan
41830;BME280;38614;43.472;23.936;2022-08-05T06:27:34;100112.41;;;27.74;nan
41830;BME280;38614;43.472;23.936;2022-08-05T06:30:42;100115.06;;;27.78;nan
41830;BME280;38614;43.472;23.936;2022-08-05T06:33:33;100107.66;;;28.14;nan
41830;BME280;38614;43.472;23.936;2022-08-05T06:36:40;100108.81;;;28.40;nan
41830;BME280;38614;43.472;23.936;2022-08-05T06:39:45;100092.78;;;28.52;nan
41830;BME280;38614;43.472;23.936;2022-08-05T06:42:33;100103.72;;;28.44;nan
41830;BME280;38614;43.472;23.936;2022-08-05T06:45:21;100095.50;;;28.70;nan
41830;BME280;38614;43.472;23.936;2022-08-05T06:48:29;100098.41;;;28.61;nan
41830;BME280;38614;43.472;23.936;2022-08-05T06:51:37;100103.16;;;29.03;nan
41830;BME280;38614;43.472;23.936;2022-08-05T06:54:28;100101.16;;;29.33;nan
41830;BME280;38614;43.472;23.936;2022-08-05T06:57:15;100057.91;;;28.66;nan
41830;BME280;38614;43.472;23.936;2022-08-05T07:00:24;100088.59;;;28.62;nan
41830;BME280;38614;43.472;23.936;2022-08-05T07:03:12;100083.63;;;28.72;nan
41830;BME280;38614;43.472;23.936;2022-08-05T07:06:02;100101.22;;;29.23;nan
41830;BME280;38614;43.472;23.936;2022-08-05T07:08:53;100104.97;;;29.59;nan
41830;BME280;38614;43.472;23.936;2022-08-05T07:11:41;100102.69;;;29.93;nan
41830;BME280;38614;43.472;23.936;2022-08-05T07:14:35;100102.38;;;30.41;nan
41830;BME280;38614;43.472;23.936;2022-08-05T07:17:44;100104.63;;;30.92;nan
41830;BME280;38614;43.472;23.936;2022-08-05T07:20:48;100109.41;;;31.01;nan
41830;BME280;38614;43.472;23.936;2022-08-05T07:23:36;100102.25;;;30.50;nan
41830;BME280;38614;43.472;23.936;2022-08-05T07:26:26;100088.00;;;30.15;nan
41830;BME280;38614;43.472;23.936;2022-08-05T07:29:14;100102.56;;;30.72;nan
41830;BME280;38614;43.472;23.936;2022-08-05T07:32:02;100104.41;;;30.96;nan
41830;BME280;38614;43.472;23.936;2022-08-05T07:34:50;100103.38;;;30.99;nan
41830;BME280;38614;43.472;23.936;2022-08-05T07:37:44;100109.34;;;31.73;nan
41830;BME280;38614;43.472;23.936;2022-08-05T07:40:32;100110.16;;;32.11;nan
41830;BME280;38614;43.472;23.936;2022-08-05T07:43:19;100116.75;;;32.59;nan
41830;BME280;38614;43.472;23.936;2022-08-05T07:49:11;100129.59;;;32.32;nan
41830;BME280;38614;43.472;23.936;2022-08-05T07:52:03;100115.00;;;31.93;nan
41830;BME280;38614;43.472;23.936;2022-08-05T07:54:52;100112.69;;;31.97;nan
41830;BME280;38614;43.472;23.936;2022-08-05T07:57:41;100111.78;;;32.17;nan
41830;BME280;38614;43.472;23.936;2022-08-05T08:00:42;100118.72;;;32.05;nan
41830;BME280;38614;43.472;23.936;2022-08-05T08:03:30;100106.72;;;32.86;nan
41830;BME280;38614;43.472;23.936;2022-08-05T08:06:36;100105.50;;;33.10;nan
41830;BME280;38614;43.472;23.936;2022-08-05T08:09:24;100086.34;;;32.73;nan
41830;BME280;38614;43.472;23.936;2022-08-05T08:15:25;100104.56;;;33.74;nan
41830;BME280;38614;43.472;23.936;2022-08-05T08:18:14;100107.97;;;34.07;nan
41830;BME280;38614;43.472;23.936;2022-08-05T08:21:07;100103.22;;;33.36;nan
41830;BME280;38614;43.472;23.936;2022-08-05T08:26:50;100094.63;;;33.87;nan
41830;BME280;38614;43.472;23.936;2022-08-05T08:32:46;100087.47;;;34.61;nan
41830;BME280;38614;43.472;23.936;2022-08-05T08:35:36;100088.41;;;34.85;nan
41830;BME280;38614;43.472;23.936;2022-08-05T08:41:29;100091.16;;;34.50;nan
41830;BME280;38614;43.472;23.936;2022-08-05T08:44:38;100072.50;;;34.84;nan
41830;BME280;38614;43.472;23.936;2022-08-05T08:47:50;100087.38;;;34.89;nan
41830;BME280;38614;43.472;23.936;2022-08-05T08:50:54;99126.41;;;28.41;nan
41830;BME280;38614;43.472;23.936;2022-08-05T08:59:38;100083.97;;;35.37;nan
41830;BME280;38614;43.472;23.936;2022-08-05T09:02:27;100077.66;;;35.44;nan
41830;BME280;38614;43.472;23.936;2022-08-05T09:05:15;100067.34;;;35.60;nan
41830;BME280;38614;43.472;23.936;2022-08-05T16:36:28;99752.47;;;33.54;nan
41830;BME280;38614;43.472;23.936;2022-08-05T16:39:16;99737.63;;;33.50;nan
41830;BME280;38614;43.472;23.936;2022-08-05T16:48:10;99685.28;;;32.97;nan
41830;BME280;38614;43.472;23.936;2022-08-05T16:50:58;99736.16;;;33.27;nan
41830;BME280;38614;43.472;23.936;2022-08-05T16:59:42;99742.25;;;32.89;nan
41830;BME280;38614;43.472;23.936;2022-08-05T17:02:47;99738.63;;;32.67;nan
41830;BME280;38614;43.472;23.936;2022-08-05T17:05:36;99746.47;;;32.49;nan
41830;BME280;38614;43.472;23.936;2022-08-05T17:08:24;99749.03;;;32.36;nan
41830;BME280;38614;43.472;23.936;2022-08-05T17:11:23;99745.38;;;32.19;nan
41830;BME280;38614;43.472;23.936;2022-08-05T17:14:11;99750.56;;;32.03;nan
41830;BME280;38614;43.472;23.936;2022-08-05T17:16:59;99742.44;;;31.80;nan
41830;BME280;38614;43.472;23.936;2022-08-05T17:19:54;99751.53;;;31.78;nan
41830;BME280;38614;43.472;23.936;2022-08-05T17:22:56;99740.03;;;31.56;nan
41830;BME280;38614;43.472;23.936;2022-08-05T17:25:44;99655.59;;;30.78;nan
41830;BME280;38614;43.472;23.936;2022-08-05T17:28:35;99748.97;;;31.26;nan
41830;BME280;38614;43.472;23.936;2022-08-05T17:34:30;99760.22;;;30.98;nan
41830;BME280;38614;43.472;23.936;2022-08-05T17:37:18;99757.75;;;30.80;nan
41830;BME280;38614;43.472;23.936;2022-08-05T17:46:25;99754.84;;;30.37;nan
41830;BME280;38614;43.472;23.936;2022-08-05T17:49:13;99759.38;;;30.23;nan
41830;BME280;38614;43.472;23.936;2022-08-05T17:52:01;99751.91;;;30.05;nan
41830;BME280;38614;43.472;23.936;2022-08-05T17:54:52;99757.31;;;29.98;nan
41830;BME280;38614;43.472;23.936;2022-08-05T17:57:40;99747.78;;;29.80;nan
41830;BME280;38614;43.472;23.936;2022-08-05T18:00:29;99757.28;;;29.72;nan
41830;BME280;38614;43.472;23.936;2022-08-05T18:03:19;99760.22;;;29.57;nan
41830;BME280;38614;43.472;23.936;2022-08-05T18:06:26;99748.81;;;29.37;nan
41830;BME280;38614;43.472;23.936;2022-08-05T18:12:03;99773.13;;;29.17;nan
41830;BME280;38614;43.472;23.936;2022-08-05T18:14:51;99780.22;;;29.07;nan
41830;BME280;38614;43.472;23.936;2022-08-05T18:17:39;99749.06;;;28.83;nan
41830;BME280;38614;43.472;23.936;2022-08-05T18:20:50;99763.63;;;28.71;nan
41830;BME280;38614;43.472;23.936;2022-08-05T18:23:38;99778.72;;;28.77;nan
41830;BME280;38614;43.472;23.936;2022-08-05T18:26:33;99794.81;;;28.65;nan
41830;BME280;38614;43.472;23.936;2022-08-05T18:35:16;99752.09;;;28.15;nan
41830;BME280;38614;43.472;23.936;2022-08-05T18:38:03;99766.59;;;28.17;nan
41830;BME280;38614;43.472;23.936;2022-08-05T18:40:53;99796.06;;;28.20;nan
41830;BME280;38614;43.472;23.936;2022-08-05T18:44:05;99784.09;;;28.01;nan
41830;BME280;38614;43.472;23.936;2022-08-05T18:46:54;99806.34;;;28.02;nan
41830;BME280;38614;43.472;23.936;2022-08-05T18:49:45;99797.84;;;28.02;nan
41830;BME280;38614;43.472;23.936;2022-08-05T18:52:57;99798.31;;;28.01;nan
41830;BME280;38614;43.472;23.936;2022-08-05T18:55:44;99763.91;;;27.69;nan
41830;BME280;38614;43.472;23.936;2022-08-05T18:58:32;99784.56;;;27.70;nan
41830;BME280;38614;43.472;23.936;2022-08-05T19:01:21;99802.19;;;27.74;nan
41830;BME280;38614;43.472;23.936;2022-08-05T19:04:19;99783.09;;;27.50;nan
41830;BME280;38614;43.472;23.936;2022-08-05T19:07:09;99810.69;;;27.50;nan
41830;BME280;38614;43.472;23.936;2022-08-05T19:09:57;99799.22;;;27.44;nan
41830;BME280;38614;43.472;23.936;2022-08-05T19:12:47;99776.81;;;27.22;nan
41830;BME280;38614;43.472;23.936;2022-08-05T19:15:36;99817.16;;;27.50;nan
41830;BME280;38614;43.472;23.936;2022-08-05T19:18:48;99716.69;;;26.85;nan
41830;BME280;38614;43.472;23.936;2022-08-05T19:21:39;99792.81;;;27.35;nan
41830;BME280;38614;43.472;23.936;2022-08-05T19:24:27;99798.50;;;27.35;nan
41830;BME280;38614;43.472;23.936;2022-08-05T19:27:26;99763.53;;;27.05;nan
41830;BME280;38614;43.472;23.936;2022-08-05T19:30:19;99793.97;;;27.28;nan
41830;BME280;38614;43.472;23.936;2022-08-05T19:33:07;99796.88;;;27.19;nan
41830;BME280;38614;43.472;23.936;2022-08-05T19:36:04;99808.13;;;27.04;nan
41830;BME280;38614;43.472;23.936;2022-08-05T19:38:53;99784.97;;;26.96;nan
41830;BME280;38614;43.472;23.936;2022-08-05T19:41:47;99796.22;;;26.91;nan
41830;BME280;38614;43.472;23.936;2022-08-05T19:44:53;99746.97;;;26.46;nan
41830;BME280;38614;43.472;23.936;2022-08-05T19:47:43;99803.53;;;26.74;nan
41830;BME280;38614;43.472;23.936;2022-08-05T19:50:31;99788.00;;;26.51;nan
41830;BME280;38614;43.472;23.936;2022-08-05T19:53:28;99805.38;;;26.44;nan
41830;BME280;38614;43.472;23.936;2022-08-05T19:56:37;99810.41;;;26.21;nan
41830;BME280;38614;43.472;23.936;2022-08-05T19:59:25;99809.31;;;26.19;nan
41830;BME280;38614;43.472;23.936;2022-08-05T20:02:33;99816.38;;;26.14;nan
41830;BME280;38614;43.472;23.936;2022-08-05T20:05:24;99803.50;;;26.04;nan
41830;BME280;38614;43.472;23.936;2022-08-05T20:08:37;99803.19;;;26.02;nan
41830;BME280;38614;43.472;23.936;2022-08-05T20:11:25;99794.88;;;25.80;nan
41830;BME280;38614;43.472;23.936;2022-08-05T20:14:13;99808.25;;;25.79;nan
41830;BME280;38614;43.472;23.936;2022-08-05T20:17:04;99793.75;;;25.77;nan
41830;BME280;38614;43.472;23.936;2022-08-05T20:19:52;99792.84;;;25.71;nan
41830;BME280;38614;43.472;23.936;2022-08-05T20:22:43;99765.28;;;25.44;nan
41830;BME280;38614;43.472;23.936;2022-08-05T20:25:33;99797.97;;;25.54;nan
41830;BME280;38614;43.472;23.936;2022-08-05T20:28:25;99793.56;;;25.44;nan
41830;BME280;38614;43.472;23.936;2022-08-05T20:31:13;99792.78;;;25.44;nan
41830;BME280;38614;43.472;23.936;2022-08-05T20:34:02;99805.97;;;25.38;nan
41830;BME280;38614;43.472;23.936;2022-08-05T20:36:50;99807.72;;;25.35;nan
41830;BME280;38614;43.472;23.936;2022-08-05T20:39:38;99801.56;;;25.27;nan
41830;BME280;38614;43.472;23.936;2022-08-05T20:45:31;99799.50;;;25.19;nan
41830;BME280;38614;43.472;23.936;2022-08-05T20:48:39;99786.13;;;25.10;nan
41830;BME280;38614;43.472;23.936;2022-08-05T20:51:27;99801.69;;;25.15;nan
41830;BME280;38614;43.472;23.936;2022-08-05T20:54:16;99798.38;;;25.07;nan
41830;BME280;38614;43.472;23.936;2022-08-05T20:57:35;99803.38;;;25.03;nan
41830;BME280;38614;43.472;23.936;2022-08-05T21:00:30;99795.66;;;24.94;nan
41830;BME280;38614;43.472;23.936;2022-08-05T21:03:35;99755.47;;;24.59;nan
41830;BME280;38614;43.472;23.936;2022-08-05T21:06:23;99788.47;;;24.71;nan
41830;BME280;38614;43.472;23.936;2022-08-05T21:09:14;99793.00;;;24.60;nan
41830;BME280;38614;43.472;23.936;2022-08-05T21:12:02;99761.06;;;24.41;nan
41830;BME280;38614;43.472;23.936;2022-08-05T21:14:55;99799.09;;;24.58;nan
41830;BME280;38614;43.472;23.936;2022-08-05T21:17:43;99788.03;;;24.42;nan
41830;BME280;38614;43.472;23.936;2022-08-05T21:20:30;99802.75;;;24.37;nan
41830;BME280;38614;43.472;23.936;2022-08-05T21:23:21;99796.66;;;24.38;nan
41830;BME280;38614;43.472;23.936;2022-08-05T21:26:08;99803.00;;;24.30;nan
41830;BME280;38614;43.472;23.936;2022-08-05T21:29:00;99789.56;;;24.12;nan
41830;BME280;38614;43.472;23.936;2022-08-05T21:31:50;99789.69;;;24.08;nan
41830;BME280;38614;43.472;23.936;2022-08-05T21:34:37;99794.78;;;24.01;nan
41830;BME280;38614;43.472;23.936;2022-08-05T21:37:25;99800.78;;;24.03;nan
41830;BME280;38614;43.472;23.936;2022-08-05T21:40:13;99786.78;;;23.99;nan
41830;BME280;38614;43.472;23.936;2022-08-05T21:43:02;99753.97;;;23.71;nan
41830;BME280;38614;43.472;23.936;2022-08-05T21:45:52;99782.34;;;23.89;nan
41830;BME280;38614;43.472;23.936;2022-08-05T21:48:44;99782.25;;;23.80;nan
41830;BME280;38614;43.472;23.936;2022-08-05T21:51:31;99794.09;;;23.87;nan
41830;BME280;38614;43.472;23.936;2022-08-05T21:54:39;99789.47;;;23.81;nan
41830;BME280;38614;43.472;23.936;2022-08-05T21:57:27;99763.38;;;23.68;nan
41830;BME280;38614;43.472;23.936;2022-08-05T22:00:18;99789.09;;;23.70;nan
41830;BME280;38614;43.472;23.936;2022-08-05T22:03:06;99778.19;;;23.59;nan
41830;BME280;38614;43.472;23.936;2022-08-05T22:05:58;99784.81;;;23.65;nan
41830;BME280;38614;43.472;23.936;2022-08-05T22:08:46;99766.47;;;23.48;nan
41830;BME280;38614;43.472;23.936;2022-08-05T22:11:33;99781.03;;;23.46;nan
41830;BME280;38614;43.472;23.936;2022-08-05T22:14:22;99749.16;;;23.24;nan
41830;BME280;38614;43.472;23.936;2022-08-05T22:17:22;99771.47;;;23.31;nan
41830;BME280;38614;43.472;23.936;2022-08-05T22:20:11;99786.13;;;23.26;nan
41830;BME280;38614;43.472;23.936;2022-08-05T22:23:01;99778.59;;;23.23;nan
41830;BME280;38614;43.472;23.936;2022-08-05T22:26:07;99780.41;;;23.17;nan
41830;BME280;38614;43.472;23.936;2022-08-05T22:29:16;99779.50;;;23.20;nan
41830;BME280;38614;43.472;23.936;2022-08-05T22:32:05;99772.31;;;23.06;nan
41830;BME280;38614;43.472;23.936;2022-08-05T22:34:52;99777.75;;;23.00;nan
41830;BME280;38614;43.472;23.936;2022-08-05T22:37:40;99775.47;;;22.95;nan
41830;BME280;38614;43.472;23.936;2022-08-05T22:40:46;99785.75;;;23.02;nan
41830;BME280;38614;43.472;23.936;2022-08-05T22:43:36;99762.88;;;22.74;nan
41830;BME280;38614;43.472;23.936;2022-08-05T22:46:24;99759.81;;;22.56;nan
41830;BME280;38614;43.472;23.936;2022-08-05T22:49:12;99779.97;;;22.67;nan
41830;BME280;38614;43.472;23.936;2022-08-05T22:52:20;99771.53;;;22.55;nan
41830;BME280;38614;43.472;23.936;2022-08-05T22:55:17;99767.59;;;22.65;nan
41830;BME280;38614;43.472;23.936;2022-08-05T22:58:07;99777.06;;;22.58;nan
41830;BME280;38614;43.472;23.936;2022-08-05T23:00:57;99764.88;;;22.48;nan
41830;BME280;38614;43.472;23.936;2022-08-05T23:03:45;99775.59;;;22.54;nan
41830;BME280;38614;43.472;23.936;2022-08-05T23:06:44;99777.38;;;22.47;nan
41830;BME280;38614;43.472;23.936;2022-08-05T23:09:37;99763.31;;;22.35;nan
41830;BME280;38614;43.472;23.936;2022-08-05T23:12:43;99778.63;;;22.46;nan
41830;BME280;38614;43.472;23.936;2022-08-05T23:15:31;99745.06;;;22.27;nan
41830;BME280;38614;43.472;23.936;2022-08-05T23:18:21;99734.00;;;22.19;nan
41830;BME280;38614;43.472;23.936;2022-08-05T23:21:09;99746.84;;;22.33;nan
41830;BME280;38614;43.472;23.936;2022-08-05T23:23:57;99772.09;;;22.50;nan
41830;BME280;38614;43.472;23.936;2022-08-05T23:26:44;99768.03;;;22.38;nan
41830;BME280;38614;43.472;23.936;2022-08-05T23:29:35;99772.75;;;22.41;nan
41830;BME280;38614;43.472;23.936;2022-08-05T23:32:23;99770.28;;;22.30;nan
41830;BME280;38614;43.472;23.936;2022-08-05T23:35:11;99770.28;;;22.30;nan
41830;BME280;38614;43.472;23.936;2022-08-05T23:37:59;99762.63;;;22.31;nan
41830;BME280;38614;43.472;23.936;2022-08-05T23:40:47;99768.31;;;22.14;nan
41830;BME280;38614;43.472;23.936;2022-08-05T23:43:36;99765.97;;;22.13;nan
41830;BME280;38614;43.472;23.936;2022-08-05T23:46:44;99758.88;;;22.08;nan
41830;BME280;38614;43.472;23.936;2022-08-05T23:49:32;99759.53;;;22.12;nan
41830;BME280;38614;43.472;23.936;2022-08-05T23:52:22;99743.72;;;21.89;nan